ADDS METAR Data INFO
IDs: Format: Raw Decoded Include TAF

Data at: 0805 UTC 23 Jul 2018

KBXK 230735Z AUTO 33007KT 6SM CLR 32/13 A2986 RMK AO1
KBXK 230715Z AUTO 33004KT 9SM CLR 32/14 A2987 RMK AO1
KBXK 230655Z AUTO 31003KT 10SM CLR 32/13 A2987 RMK AO1
KBXK 230635Z AUTO 22004KT 9SM CLR 32/14 A2987 RMK AO1
KBXK 230615Z AUTO 30004KT 10SM CLR 33/13 A2987 RMK AO1
KBXK 230555Z AUTO 28004KT 10SM CLR 33/12 A2988 RMK AO1
KBXK 230535Z AUTO 24005KT 10SM CLR 34/13 A2988 RMK AO1
KBXK 230515Z AUTO 30007KT 10SM CLR 34/13 A2988 RMK AO1
KBXK 230455Z AUTO 30005KT 10SM CLR 34/12 A2988 RMK AO1
KBXK 230435Z AUTO 31005KT 10SM CLR 35/12 A2988 RMK AO1
KBXK 230415Z AUTO 28005KT 10SM CLR 35/12 A2987 RMK AO1
KBXK 230355Z AUTO 28006KT 10SM CLR 36/12 A2986 RMK AO1
KBXK 230335Z AUTO 28006KT 10SM CLR 36/11 A2985 RMK AO1
KBXK 230315Z AUTO 28006KT 10SM CLR 37/11 A2985 RMK AO1
KBXK 230255Z AUTO 27006KT 10SM CLR 37/10 A2984 RMK AO1
KBXK 230235Z AUTO 27006KT 10SM CLR 37/11 A2984 RMK AO1
KBXK 230215Z AUTO 27007KT 10SM CLR 39/10 A2983 RMK AO1
KBXK 230155Z AUTO 27008KT 10SM CLR 40/09 A2983 RMK AO1
KBXK 230135Z AUTO 24005KT 10SM CLR 40/10 A2983 RMK AO1
KBXK 230115Z AUTO 26006KT 10SM CLR 41/10 A2983 RMK AO1
KBXK 230055Z AUTO 27006KT 10SM CLR 41/12 A2983 RMK AO1
KBXK 230035Z AUTO 23004KT 10SM CLR 42/09 A2984 RMK AO1
KBXK 230015Z AUTO 25006KT 10SM CLR 42/09 A2984 RMK AO1
KBXK 222355Z AUTO 27006KT 10SM CLR 42/09 A2985 RMK AO1
KBXK 222335Z AUTO 20006KT 10SM CLR 42/09 A2986 RMK AO1
KBXK 222315Z AUTO 23008G15KT 10SM CLR 42/10 A2986 RMK AO1
KBXK 222255Z AUTO 22004KT 10SM CLR 41/08 A2987 RMK AO1
KBXK 222235Z AUTO 21008KT 10SM 41/09 A2987 RMK AO1
KBXK 222215Z AUTO 24006KT 10SM 42/11 A2988 RMK AO1
KBXK 222155Z AUTO 28010G14KT 240V310 10SM 41/10 A2989 RMK AO1
KBXK 222135Z AUTO 22008G14KT 170V250 10SM 40/10 A2989 RMK AO1
KBXK 222115Z AUTO 23009KT 10SM 41/12 A2990 RMK AO1
KBXK 222055Z AUTO 24007KT 10SM 40/11 A2991 RMK AO1
KBXK 222035Z AUTO 28008KT 10SM 40/10 A2992 RMK AO1
KBXK 222015Z AUTO 00000KT 10SM 39/14 A2993 RMK AO1
KBXK 221955Z AUTO 17004KT 10SM 39/14 A2993 RMK AO1
KBXK 221935Z AUTO 16009KT 10SM 38/15 A2994 RMK AO1
KBXK 221915Z AUTO 15007KT 10SM 39/15 A2995 RMK AO1
KBXK 221855Z AUTO 17005KT 10SM 38/14 A2996 RMK AO1
KBXK 221835Z AUTO 21006KT 10SM 37/14 A2996 RMK AO1
KBXK 221815Z AUTO 17007KT 10SM 37/14 A2997 RMK AO1
KBXK 221755Z AUTO 15005KT 10SM CLR 37/15 A2998 RMK AO1
KBXK 221735Z AUTO 26005KT 10SM CLR 37/15 A2998 RMK AO1
KBXK 221715Z AUTO 22005KT 10SM CLR 35/16 A2998 RMK AO1
KBXK 221655Z AUTO 00000KT 10SM CLR 35/16 A2998 RMK AO1
KBXK 221635Z AUTO 21005KT 10SM CLR 34/17 A2998 RMK AO1
KBXK 221615Z AUTO 24004KT 10SM CLR 34/17 A2998 RMK AO1
KBXK 221555Z AUTO 28003KT 10SM CLR 33/17 A2998 RMK AO1
KBXK 221535Z AUTO 27004KT 10SM CLR 32/17 A2999 RMK AO1
KBXK 221515Z AUTO 26003KT 10SM CLR 32/17 A2999 RMK AO1
KBXK 221455Z AUTO 27003KT 10SM CLR 31/18 A2999 RMK AO1
KBXK 221435Z AUTO 30003KT 10SM CLR 30/18 A2999 RMK AO1
KBXK 221415Z AUTO 34003KT 10SM CLR 30/17 A2998 RMK AO1
KBXK 221355Z AUTO 35004KT 10SM CLR 29/18 A2998 RMK AO1
KBXK 221335Z AUTO 36005KT 10SM CLR 28/18 A2998 RMK AO1
KBXK 221315Z AUTO 35005KT 10SM CLR 27/18 A2997 RMK AO1
KBXK 221255Z AUTO 34005KT 10SM CLR 26/18 A2997 RMK AO1
KBXK 221235Z AUTO 34005KT 10SM CLR 26/18 A2996 RMK AO1
KBXK 221215Z AUTO 34005KT 10SM CLR 26/18 A2996 RMK AO1
KBXK 221155Z AUTO 33005KT 10SM CLR 27/18 A2995 RMK AO1
KBXK 221135Z AUTO 34005KT 10SM CLR 27/18 A2995 RMK AO1
KBXK 221115Z AUTO 35005KT 10SM CLR 26/18 A2995 RMK AO1
KBXK 221055Z AUTO 00000KT 10SM CLR 25/19 A2994 RMK AO1
KBXK 221035Z AUTO 00000KT 10SM CLR 26/18 A2994 RMK AO1
KBXK 221015Z AUTO 34004KT 10SM CLR 27/18 A2993 RMK AO1
KBXK 220955Z AUTO 35005KT 10SM CLR 27/18 A2994 RMK AO1
KBXK 220935Z AUTO 33005KT 10SM CLR 28/18 A2993 RMK AO1
KBXK 220915Z AUTO 33005KT 10SM CLR 28/18 A2993 RMK AO1
KBXK 220855Z AUTO 34005KT 10SM CLR 28/18 A2993 RMK AO1
KBXK 220835Z AUTO 35005KT 10SM CLR 29/18 A2993 RMK AO1
KBXK 220815Z AUTO 35006KT 10SM CLR 29/18 A2994 RMK AO1
KBXK 220755Z AUTO 34007KT 10SM CLR 29/18 A2994 RMK AO1
KBXK 220735Z AUTO 32005KT 10SM CLR 29/18 A2994 RMK AO1
KBXK 220715Z AUTO 33006KT 10SM CLR 29/18 A2994 RMK AO1
KBXK 220655Z AUTO 34006KT 10SM CLR 29/19 A2994 RMK AO1
KBXK 220635Z AUTO 35005KT 10SM CLR 29/18 A2994 RMK AO1
KBXK 220615Z AUTO 36006KT 10SM CLR 29/18 A2994 RMK AO1
KBXK 220555Z AUTO 35005KT 10SM CLR 29/18 A2994 RMK AO1
KBXK 220535Z AUTO 34005KT 10SM CLR 30/18 A2994 RMK AO1
KBXK 220515Z AUTO 29004KT 10SM CLR 30/17 A2994 RMK AO1
KBXK 220455Z AUTO 27006KT 10SM CLR 30/17 A2994 RMK AO1
KBXK 220435Z AUTO 28005KT 10SM CLR 30/17 A2994 RMK AO1
KBXK 220415Z AUTO 27006KT 10SM CLR 31/16 A2994 RMK AO1
KBXK 220355Z AUTO 29005KT 10SM CLR 31/16 A2993 RMK AO1
KBXK 220335Z AUTO 25006KT 10SM CLR 32/15 A2992 RMK AO1
KBXK 220315Z AUTO 27006KT 10SM CLR 32/17 A2991 RMK AO1
KBXK 220255Z AUTO 27006KT 10SM CLR 33/15 A2991 RMK AO1
KBXK 220235Z AUTO 25005KT 10SM CLR 33/14 A2991 RMK AO1
KBXK 220215Z AUTO 24007KT 10SM CLR 34/13 A2990 RMK AO1
KBXK 220155Z AUTO 24007KT 10SM CLR 35/13 A2990 RMK AO1
KBXK 220135Z AUTO 25009KT 10SM CLR 36/12 A2989 RMK AO1
KBXK 220115Z AUTO 25010G14KT 10SM CLR 36/14 A2989 RMK AO1
KBXK 220055Z AUTO 27011KT 10SM CLR 37/13 A2988 RMK AO1
KBXK 220035Z AUTO 26011G15KT 10SM CLR 37/14 A2988 RMK AO1
KBXK 220015Z AUTO 27011G15KT 10SM CLR 37/14 A2988 RMK AO1
KBXK 212355Z AUTO 23009KT 10SM CLR 37/16 A2988 RMK AO1
KBXK 212335Z AUTO 24010G14KT 10SM CLR 37/16 A2988 RMK AO1
KBXK 212315Z AUTO 23011G15KT 10SM CLR 37/17 A2989 RMK AO1
KBXK 212255Z AUTO 25010KT 210V270 10SM CLR 38/18 A2989 RMK AO1
KBXK 212235Z AUTO 29007KT 10SM CLR 38/17 A2989 RMK AO1
KBXK 212215Z AUTO 29007KT 10SM CLR 37/17 A2990 RMK AO1
KBXK 212155Z AUTO 26007KT 10SM CLR 37/16 A2990 RMK AO1
KBXK 212135Z AUTO 29009G14KT 10SM CLR 37/17 A2991 RMK AO1
KBXK 212115Z AUTO 31008KT 10SM CLR 37/17 A2992 RMK AO1
KBXK 212055Z AUTO 36007KT 10SM CLR 35/17 A2993 RMK AO1
KBXK 212035Z AUTO 36007G16KT 10SM CLR 35/17 A2994 RMK AO1
KBXK 212015Z AUTO 32007KT 290V350 10SM CLR 34/18 A2995 RMK AO1